sensor_id;sensor_type;location;lat;lon;timestamp;pressure;altitude;pressure_sealevel;temperature;humidity
44198;BME280;30157;55.512;37.764;2022-09-14T00:00:43;99011.97;;;9.47;85.41
44198;BME280;30157;55.512;37.764;2022-09-14T00:03:09;99046.31;;;9.63;85.79
44198;BME280;30157;55.512;37.764;2022-09-14T00:05:36;99046.31;;;9.62;85.56
44198;BME280;30157;55.512;37.764;2022-09-14T00:08:02;99006.00;;;9.42;85.73
44198;BME280;30157;55.512;37.764;2022-09-14T00:10:28;99047.19;;;9.62;85.71
44198;BME280;30157;55.512;37.764;2022-09-14T00:12:54;99035.13;;;9.59;85.70
44198;BME280;30157;55.512;37.764;2022-09-14T00:15:20;99038.59;;;9.57;86.11
44198;BME280;30157;55.512;37.764;2022-09-14T00:17:46;99022.34;;;9.46;86.03
44198;BME280;30157;55.512;37.764;2022-09-14T00:20:12;99027.44;;;9.53;86.03
44198;BME280;30157;55.512;37.764;2022-09-14T00:22:38;99032.53;;;9.59;86.11
44198;BME280;30157;55.512;37.764;2022-09-14T00:25:07;99023.97;;;9.53;86.32
44198;BME280;30157;55.512;37.764;2022-09-14T00:27:33;99044.63;;;9.59;86.46
44198;BME280;30157;55.512;37.764;2022-09-14T00:29:59;99029.13;;;9.54;87.06
44198;BME280;30157;55.512;37.764;2022-09-14T00:32:30;99022.28;;;9.50;86.42
44198;BME280;30157;55.512;37.764;2022-09-14T00:34:56;99030.00;;;9.55;86.60
44198;BME280;30157;55.512;37.764;2022-09-14T00:37:21;99027.41;;;9.55;86.99
44198;BME280;30157;55.512;37.764;2022-09-14T00:39:47;98962.34;;;9.14;86.80
44198;BME280;30157;55.512;37.764;2022-09-14T00:42:15;99024.81;;;9.55;87.08
44198;BME280;30157;55.512;37.764;2022-09-14T00:47:12;98984.47;;;9.38;86.74
44198;BME280;30157;55.512;37.764;2022-09-14T00:49:41;99021.31;;;9.59;86.59
44198;BME280;30157;55.512;37.764;2022-09-14T00:52:23;98978.41;;;9.38;86.42
44198;BME280;30157;55.512;37.764;2022-09-14T00:54:54;98964.66;;;9.33;86.51
44198;BME280;30157;55.512;37.764;2022-09-14T00:57:21;99016.09;;;9.61;86.16
44198;BME280;30157;55.512;37.764;2022-09-14T00:59:49;99009.97;;;9.66;86.55
44198;BME280;30157;55.512;37.764;2022-09-14T01:02:17;99002.28;;;9.62;86.43
44198;BME280;30157;55.512;37.764;2022-09-14T01:04:43;98992.91;;;9.51;86.69
44198;BME280;30157;55.512;37.764;2022-09-14T01:12:34;98957.75;;;9.35;87.02
44198;BME280;30157;55.512;37.764;2022-09-14T01:18:22;98987.59;;;9.62;87.14
44198;BME280;30157;55.512;37.764;2022-09-14T01:31:49;98991.97;;;9.57;87.87
44198;BME280;30157;55.512;37.764;2022-09-14T01:34:29;98988.56;;;9.55;87.97
44198;BME280;30157;55.512;37.764;2022-09-14T01:37:10;98952.63;;;9.32;88.07
44198;BME280;30157;55.512;37.764;2022-09-14T01:39:47;98991.13;;;9.56;88.39
44198;BME280;30157;55.512;37.764;2022-09-14T01:42:16;98980.03;;;9.47;88.43
44198;BME280;30157;55.512;37.764;2022-09-14T01:44:47;98948.34;;;9.29;88.69
44198;BME280;30157;55.512;37.764;2022-09-14T01:47:30;98984.22;;;9.55;88.65
44198;BME280;30157;55.512;37.764;2022-09-14T01:50:05;98980.00;;;9.50;88.63
44198;BME280;30157;55.512;37.764;2022-09-14T01:52:47;98958.50;;;9.43;88.89
44198;BME280;30157;55.512;37.764;2022-09-14T01:55:26;98909.69;;;9.14;88.79
44198;BME280;30157;55.512;37.764;2022-09-14T01:58:18;98975.66;;;9.52;89.25
44198;BME280;30157;55.512;37.764;2022-09-14T02:00:48;98842.03;;;8.76;89.06
44198;BME280;30157;55.512;37.764;2022-09-14T02:03:24;98972.19;;;9.51;89.50
44198;BME280;30157;55.512;37.764;2022-09-14T02:05:56;98974.72;;;9.54;89.42
44198;BME280;30157;55.512;37.764;2022-09-14T02:08:26;98970.44;;;9.53;89.41
44198;BME280;30157;55.512;37.764;2022-09-14T02:10:53;98871.13;;;8.97;89.36
44198;BME280;30157;55.512;37.764;2022-09-14T02:13:19;98951.59;;;9.42;89.54
44198;BME280;30157;55.512;37.764;2022-09-14T02:15:45;98910.41;;;9.27;89.50
44198;BME280;30157;55.512;37.764;2022-09-14T02:18:11;98890.66;;;9.18;89.47
44198;BME280;30157;55.512;37.764;2022-09-14T02:20:47;98957.53;;;9.50;89.72
44198;BME280;30157;55.512;37.764;2022-09-14T02:23:15;98947.22;;;9.47;89.82
44198;BME280;30157;55.512;37.764;2022-09-14T02:25:41;98870.16;;;9.04;89.57
44198;BME280;30157;55.512;37.764;2022-09-14T02:28:07;98945.44;;;9.51;89.80
44198;BME280;30157;55.512;37.764;2022-09-14T02:30:49;98950.53;;;9.55;89.87
44198;BME280;30157;55.512;37.764;2022-09-14T02:33:27;98941.13;;;9.50;89.64
44198;BME280;30157;55.512;37.764;2022-09-14T02:36:01;98954.84;;;9.58;89.97
44198;BME280;30157;55.512;37.764;2022-09-14T02:41:47;98939.38;;;9.50;89.76
44198;BME280;30157;55.512;37.764;2022-09-14T02:44:32;98937.75;;;9.45;90.18
44198;BME280;30157;55.512;37.764;2022-09-14T02:47:14;98948.84;;;9.56;90.11
44198;BME280;30157;55.512;37.764;2022-09-14T02:53:05;98948.75;;;9.61;89.70
44198;BME280;30157;55.512;37.764;2022-09-14T02:55:34;98950.44;;;9.63;89.94
44198;BME280;30157;55.512;37.764;2022-09-14T02:58:05;98940.16;;;9.58;89.90
44198;BME280;30157;55.512;37.764;2022-09-14T03:00:35;98889.59;;;9.31;89.90
44198;BME280;30157;55.512;37.764;2022-09-14T03:03:02;98883.66;;;9.24;89.94
44198;BME280;30157;55.512;37.764;2022-09-14T03:05:28;98924.63;;;9.58;90.11
44198;BME280;30157;55.512;37.764;2022-09-14T03:07:54;98923.66;;;9.64;89.83
44198;BME280;30157;55.512;37.764;2022-09-14T03:10:20;98872.28;;;9.35;89.85
44198;BME280;30157;55.512;37.764;2022-09-14T03:12:45;98927.94;;;9.67;89.79
44198;BME280;30157;55.512;37.764;2022-09-14T03:15:11;98933.16;;;9.64;90.10
44198;BME280;30157;55.512;37.764;2022-09-14T03:17:37;98886.06;;;9.37;89.95
44198;BME280;30157;55.512;37.764;2022-09-14T03:20:03;98923.63;;;9.66;89.95
44198;BME280;30157;55.512;37.764;2022-09-14T03:22:29;98907.34;;;9.59;90.08
44198;BME280;30157;55.512;37.764;2022-09-14T03:24:56;98913.31;;;9.61;90.20
44198;BME280;30157;55.512;37.764;2022-09-14T03:27:22;98919.31;;;9.65;90.17
44198;BME280;30157;55.512;37.764;2022-09-14T03:29:47;98867.91;;;9.40;90.14
44198;BME280;30157;55.512;37.764;2022-09-14T03:32:13;98879.84;;;9.49;89.94
44198;BME280;30157;55.512;37.764;2022-09-14T03:34:39;98901.13;;;9.68;89.81
44198;BME280;30157;55.512;37.764;2022-09-14T03:37:05;98910.59;;;9.70;89.79
44198;BME280;30157;55.512;37.764;2022-09-14T03:39:31;98924.28;;;9.79;89.71
44198;BME280;30157;55.512;37.764;2022-09-14T03:41:57;98914.84;;;9.74;89.92
44198;BME280;30157;55.512;37.764;2022-09-14T03:44:23;98915.66;;;9.78;89.83
44198;BME280;30157;55.512;37.764;2022-09-14T03:46:48;98880.56;;;9.57;89.53
44198;BME280;30157;55.512;37.764;2022-09-14T03:49:14;98907.91;;;9.77;89.33
44198;BME280;30157;55.512;37.764;2022-09-14T03:51:42;98909.66;;;9.76;89.53
44198;BME280;30157;55.512;37.764;2022-09-14T03:54:08;98857.41;;;9.49;89.50
44198;BME280;30157;55.512;37.764;2022-09-14T03:56:33;98913.03;;;9.83;89.31
44198;BME280;30157;55.512;37.764;2022-09-14T03:58:59;98851.38;;;9.47;89.51
44198;BME280;30157;55.512;37.764;2022-09-14T04:01:25;98908.63;;;9.86;89.60
44198;BME280;30157;55.512;37.764;2022-09-14T04:03:51;98901.88;;;9.78;89.49
44198;BME280;30157;55.512;37.764;2022-09-14T04:06:17;98883.66;;;9.81;89.47
44198;BME280;30157;55.512;37.764;2022-09-14T04:08:45;98904.13;;;9.96;89.17
44198;BME280;30157;55.512;37.764;2022-09-14T04:11:16;98889.47;;;9.95;89.13
44198;BME280;30157;55.512;37.764;2022-09-14T04:13:42;98903.22;;;9.99;88.71
44198;BME280;30157;55.512;37.764;2022-09-14T04:16:09;98886.88;;;9.95;88.83
44198;BME280;30157;55.512;37.764;2022-09-14T04:18:35;98901.38;;;10.05;88.71
44198;BME280;30157;55.512;37.764;2022-09-14T04:21:07;98902.28;;;10.04;88.78
44198;BME280;30157;55.512;37.764;2022-09-14T04:23:34;98910.84;;;10.08;88.83
44198;BME280;30157;55.512;37.764;2022-09-14T04:26:00;98858.81;;;9.69;88.99
44198;BME280;30157;55.512;37.764;2022-09-14T04:28:26;98903.22;;;10.00;89.13
44198;BME280;30157;55.512;37.764;2022-09-14T04:30:56;98872.47;;;9.80;88.92
44198;BME280;30157;55.512;37.764;2022-09-14T04:33:23;98885.97;;;9.96;88.95
44198;BME280;30157;55.512;37.764;2022-09-14T04:36:00;98911.75;;;10.05;88.84
44198;BME280;30157;55.512;37.764;2022-09-14T04:38:30;98904.78;;;10.09;88.88
44198;BME280;30157;55.512;37.764;2022-09-14T04:40:57;98890.28;;;9.97;89.03
44198;BME280;30157;55.512;37.764;2022-09-14T04:43:24;98886.81;;;9.98;88.82
44198;BME280;30157;55.512;37.764;2022-09-14T04:45:50;98909.09;;;10.10;89.03
44198;BME280;30157;55.512;37.764;2022-09-14T04:48:17;98910.81;;;10.09;88.98
44198;BME280;30157;55.512;37.764;2022-09-14T04:50:43;98912.59;;;10.07;89.22
44198;BME280;30157;55.512;37.764;2022-09-14T04:53:09;98875.75;;;9.90;89.16
44198;BME280;30157;55.512;37.764;2022-09-14T04:55:35;98865.44;;;9.85;88.77
44198;BME280;30157;55.512;37.764;2022-09-14T04:58:02;98911.66;;;10.12;88.80
44198;BME280;30157;55.512;37.764;2022-09-14T05:00:28;98862.00;;;9.85;89.04
44198;BME280;30157;55.512;37.764;2022-09-14T05:02:54;98909.09;;;10.10;89.11
44198;BME280;30157;55.512;37.764;2022-09-14T05:05:20;98863.63;;;9.90;89.13
44198;BME280;30157;55.512;37.764;2022-09-14T05:07:45;98893.53;;;10.10;89.02
44198;BME280;30157;55.512;37.764;2022-09-14T05:10:11;98889.22;;;10.09;88.35
44198;BME280;30157;55.512;37.764;2022-09-14T05:12:39;98901.16;;;10.19;88.55
44198;BME280;30157;55.512;37.764;2022-09-14T05:15:05;98905.28;;;10.30;88.18
44198;BME280;30157;55.512;37.764;2022-09-14T05:17:34;98868.63;;;10.01;88.36
44198;BME280;30157;55.512;37.764;2022-09-14T05:20:00;98907.78;;;10.37;87.86
44198;BME280;30157;55.512;37.764;2022-09-14T05:22:28;98918.81;;;10.49;87.38
44198;BME280;30157;55.512;37.764;2022-09-14T05:24:54;98915.34;;;10.48;86.97
44198;BME280;30157;55.512;37.764;2022-09-14T05:27:19;98909.31;;;10.48;86.88
44198;BME280;30157;55.512;37.764;2022-09-14T05:29:45;98908.50;;;10.44;86.76
44198;BME280;30157;55.512;37.764;2022-09-14T05:32:11;98912.78;;;10.47;87.10
44198;BME280;30157;55.512;37.764;2022-09-14T05:34:36;98908.47;;;10.46;86.82
44198;BME280;30157;55.512;37.764;2022-09-14T05:37:05;98920.56;;;10.47;86.66
44198;BME280;30157;55.512;37.764;2022-09-14T05:39:30;98912.78;;;10.47;86.98
44198;BME280;30157;55.512;37.764;2022-09-14T05:41:56;98891.19;;;10.46;86.48
44198;BME280;30157;55.512;37.764;2022-09-14T05:44:22;98905.84;;;10.49;86.78
44198;BME280;30157;55.512;37.764;2022-09-14T05:46:47;98910.75;;;10.63;86.32
44198;BME280;30157;55.512;37.764;2022-09-14T05:49:13;98897.91;;;10.56;86.44
44198;BME280;30157;55.512;37.764;2022-09-14T05:51:38;98907.22;;;10.67;86.23
44198;BME280;30157;55.512;37.764;2022-09-14T05:54:04;98911.34;;;10.75;85.45
44198;BME280;30157;55.512;37.764;2022-09-14T05:56:36;98917.28;;;10.82;85.11
44198;BME280;30157;55.512;37.764;2022-09-14T05:59:02;98905.31;;;10.75;85.43
44198;BME280;30157;55.512;37.764;2022-09-14T06:01:30;98908.69;;;10.80;84.93
44198;BME280;30157;55.512;37.764;2022-09-14T06:03:59;98896.72;;;10.73;84.98
44198;BME280;30157;55.512;37.764;2022-09-14T06:06:25;98867.63;;;10.57;84.86
44198;BME280;30157;55.512;37.764;2022-09-14T06:08:52;98886.34;;;10.71;84.88
44198;BME280;30157;55.512;37.764;2022-09-14T06:11:25;98903.50;;;10.80;84.60
44198;BME280;30157;55.512;37.764;2022-09-14T06:13:52;98900.25;;;10.69;85.04
44198;BME280;30157;55.512;37.764;2022-09-14T06:16:20;98891.72;;;10.62;85.09
44198;BME280;30157;55.512;37.764;2022-09-14T06:18:46;98896.94;;;10.61;85.06
44198;BME280;30157;55.512;37.764;2022-09-14T06:21:14;98895.09;;;10.67;85.01
44198;BME280;30157;55.512;37.764;2022-09-14T06:23:42;98894.97;;;10.73;85.05
44198;BME280;30157;55.512;37.764;2022-09-14T06:26:08;98896.44;;;10.87;84.68
44198;BME280;30157;55.512;37.764;2022-09-14T06:28:34;98869.09;;;10.69;84.60
44198;BME280;30157;55.512;37.764;2022-09-14T06:31:01;98848.63;;;10.55;84.52
44198;BME280;30157;55.512;37.764;2022-09-14T06:33:33;98878.53;;;10.74;84.86
44198;BME280;30157;55.512;37.764;2022-09-14T06:36:01;98892.88;;;10.91;84.40
44198;BME280;30157;55.512;37.764;2022-09-14T06:38:28;98877.53;;;10.80;84.78
44198;BME280;30157;55.512;37.764;2022-09-14T06:40:55;98904.88;;;10.97;84.46
44198;BME280;30157;55.512;37.764;2022-09-14T06:43:22;98909.31;;;10.91;84.99
44198;BME280;30157;55.512;37.764;2022-09-14T06:45:56;98858.88;;;10.63;84.81
44198;BME280;30157;55.512;37.764;2022-09-14T06:48:22;98901.66;;;10.85;85.14
44198;BME280;30157;55.512;37.764;2022-09-14T06:50:48;98901.75;;;10.81;85.52
44198;BME280;30157;55.512;37.764;2022-09-14T06:53:13;98878.63;;;10.68;85.22
44198;BME280;30157;55.512;37.764;2022-09-14T06:55:39;98902.69;;;10.76;85.50
44198;BME280;30157;55.512;37.764;2022-09-14T06:58:05;98844.41;;;10.51;85.80
44198;BME280;30157;55.512;37.764;2022-09-14T07:00:32;98900.06;;;10.78;85.95
44198;BME280;30157;55.512;37.764;2022-09-14T07:02:58;98895.78;;;10.75;86.15
44198;BME280;30157;55.512;37.764;2022-09-14T07:05:25;98879.69;;;10.58;86.75
44198;BME280;30157;55.512;37.764;2022-09-14T07:07:50;98897.53;;;10.75;86.82
44198;BME280;30157;55.512;37.764;2022-09-14T07:10:18;98886.41;;;10.68;87.25
44198;BME280;30157;55.512;37.764;2022-09-14T07:12:43;98828.16;;;10.41;87.19
44198;BME280;30157;55.512;37.764;2022-09-14T07:15:09;98883.84;;;10.68;87.79
44198;BME280;30157;55.512;37.764;2022-09-14T07:17:35;98869.06;;;10.72;87.69
44198;BME280;30157;55.512;37.764;2022-09-14T07:20:04;98892.03;;;10.90;87.77
44198;BME280;30157;55.512;37.764;2022-09-14T07:22:32;98881.56;;;10.95;87.77
44198;BME280;30157;55.512;37.764;2022-09-14T07:24:58;98872.34;;;10.80;88.15
44198;BME280;30157;55.512;37.764;2022-09-14T07:27:24;98880.75;;;10.91;88.04
44198;BME280;30157;55.512;37.764;2022-09-14T07:29:50;98865.28;;;10.87;88.06
44198;BME280;30157;55.512;37.764;2022-09-14T07:32:16;98883.19;;;10.99;88.22
44198;BME280;30157;55.512;37.764;2022-09-14T07:34:43;98735.88;;;10.29;87.83
44198;BME280;30157;55.512;37.764;2022-09-14T07:37:08;98873.91;;;11.28;87.19
44198;BME280;30157;55.512;37.764;2022-09-14T07:39:35;98875.56;;;11.68;86.30
44198;BME280;30157;55.512;37.764;2022-09-14T07:42:01;98737.06;;;11.30;84.87
44198;BME280;30157;55.512;37.764;2022-09-14T07:44:27;98859.97;;;12.36;83.58
44198;BME280;30157;55.512;37.764;2022-09-14T07:46:52;98861.09;;;12.27;83.27
44198;BME280;30157;55.512;37.764;2022-09-14T07:49:18;98850.16;;;12.14;83.55
44198;BME280;30157;55.512;37.764;2022-09-14T07:51:47;98854.28;;;12.23;82.80
44198;BME280;30157;55.512;37.764;2022-09-14T07:54:14;98866.84;;;12.40;82.93
44198;BME280;30157;55.512;37.764;2022-09-14T07:56:41;98867.84;;;12.34;82.35
44198;BME280;30157;55.512;37.764;2022-09-14T07:59:12;98815.00;;;11.99;82.70
44198;BME280;30157;55.512;37.764;2022-09-14T08:01:38;98863.25;;;12.11;82.45
44198;BME280;30157;55.512;37.764;2022-09-14T08:04:04;98818.16;;;11.77;83.16
44198;BME280;30157;55.512;37.764;2022-09-14T08:06:31;98869.66;;;11.98;83.09
44198;BME280;30157;55.512;37.764;2022-09-14T08:08:57;98848.22;;;11.88;83.37
44198;BME280;30157;55.512;37.764;2022-09-14T08:11:28;98854.16;;;11.93;83.04
44198;BME280;30157;55.512;37.764;2022-09-14T08:13:56;98841.41;;;11.84;82.31
44198;BME280;30157;55.512;37.764;2022-09-14T08:16:23;98858.44;;;11.94;81.87
44198;BME280;30157;55.512;37.764;2022-09-14T08:18:53;98850.13;;;11.81;82.46
44198;BME280;30157;55.512;37.764;2022-09-14T08:21:20;98845.25;;;11.69;82.61
44198;BME280;30157;55.512;37.764;2022-09-14T08:23:46;98811.06;;;11.50;82.97
44198;BME280;30157;55.512;37.764;2022-09-14T08:26:16;98806.00;;;11.43;82.77
44198;BME280;30157;55.512;37.764;2022-09-14T08:28:42;98798.34;;;11.39;83.24
44198;BME280;30157;55.512;37.764;2022-09-14T08:31:11;98848.81;;;11.65;83.18
44198;BME280;30157;55.512;37.764;2022-09-14T08:33:45;98823.34;;;11.43;83.59
44198;BME280;30157;55.512;37.764;2022-09-14T08:36:15;98837.25;;;11.40;84.20
44198;BME280;30157;55.512;37.764;2022-09-14T08:38:41;98845.56;;;11.55;84.16
44198;BME280;30157;55.512;37.764;2022-09-14T08:46:42;98855.69;;;11.67;83.63
44198;BME280;30157;55.512;37.764;2022-09-14T08:49:15;98854.88;;;11.64;83.74
44198;BME280;30157;55.512;37.764;2022-09-14T08:51:43;98847.66;;;11.75;83.63
44198;BME280;30157;55.512;37.764;2022-09-14T08:54:09;98851.88;;;11.81;83.74
44198;BME280;30157;55.512;37.764;2022-09-14T08:56:39;98833.00;;;11.74;83.91
44198;BME280;30157;55.512;37.764;2022-09-14T08:59:25;98803.84;;;11.61;83.48
44198;BME280;30157;55.512;37.764;2022-09-14T09:04:38;98845.41;;;11.97;82.45
44198;BME280;30157;55.512;37.764;2022-09-14T09:09:49;98840.13;;;12.00;81.55
44198;BME280;30157;55.512;37.764;2022-09-14T09:14:57;98850.44;;;12.03;81.48
44198;BME280;30157;55.512;37.764;2022-09-14T09:17:33;98834.78;;;12.06;80.36
44198;BME280;30157;55.512;37.764;2022-09-14T09:20:15;98797.81;;;11.93;80.44
44198;BME280;30157;55.512;37.764;2022-09-14T09:22:51;98842.06;;;12.26;79.42
44198;BME280;30157;55.512;37.764;2022-09-14T09:25:29;98837.50;;;12.35;78.88
44198;BME280;30157;55.512;37.764;2022-09-14T09:28:09;98810.91;;;12.23;78.34
44198;BME280;30157;55.512;37.764;2022-09-14T09:30:36;98813.25;;;12.33;77.89
44198;BME280;30157;55.512;37.764;2022-09-14T09:33:04;98842.19;;;12.53;77.78
44198;BME280;30157;55.512;37.764;2022-09-14T09:35:50;98841.16;;;12.59;77.55
44198;BME280;30157;55.512;37.764;2022-09-14T09:38:22;98832.25;;;12.66;77.17
44198;BME280;30157;55.512;37.764;2022-09-14T09:41:11;98835.69;;;12.68;77.23
44198;BME280;30157;55.512;37.764;2022-09-14T09:46:28;98840.94;;;12.65;76.90
44198;BME280;30157;55.512;37.764;2022-09-14T09:48:55;98817.94;;;12.51;76.73
44198;BME280;30157;55.512;37.764;2022-09-14T09:53:52;98822.41;;;12.46;76.82
44198;BME280;30157;55.512;37.764;2022-09-14T09:56:24;98821.00;;;12.34;76.99
44198;BME280;30157;55.512;37.764;2022-09-14T09:58:51;98818.50;;;12.31;77.11
44198;BME280;30157;55.512;37.764;2022-09-14T10:01:29;98826.88;;;12.41;76.62
44198;BME280;30157;55.512;37.764;2022-09-14T10:04:26;98831.97;;;12.46;76.91
44198;BME280;30157;55.512;37.764;2022-09-14T10:06:55;98835.53;;;12.43;77.12
44198;BME280;30157;55.512;37.764;2022-09-14T10:09:24;98770.75;;;12.02;76.73
44198;BME280;30157;55.512;37.764;2022-09-14T10:12:02;98820.31;;;12.29;76.58
44198;BME280;30157;55.512;37.764;2022-09-14T10:14:31;98824.78;;;12.24;77.02
44198;BME280;30157;55.512;37.764;2022-09-14T10:17:20;98823.00;;;12.24;77.50
44198;BME280;30157;55.512;37.764;2022-09-14T10:19:49;98832.63;;;12.22;77.40
44198;BME280;30157;55.512;37.764;2022-09-14T10:22:31;98834.31;;;12.23;77.78
44198;BME280;30157;55.512;37.764;2022-09-14T10:24:58;98834.16;;;12.30;77.53
44198;BME280;30157;55.512;37.764;2022-09-14T10:27:45;98827.44;;;12.22;77.57
44198;BME280;30157;55.512;37.764;2022-09-14T10:30:18;98831.72;;;12.23;77.59
44198;BME280;30157;55.512;37.764;2022-09-14T10:32:53;98791.75;;;11.93;77.43
44198;BME280;30157;55.512;37.764;2022-09-14T10:35:22;98790.81;;;11.97;77.70
44198;BME280;30157;55.512;37.764;2022-09-14T10:40:29;98825.78;;;12.18;77.58
44198;BME280;30157;55.512;37.764;2022-09-14T10:43:08;98843.91;;;12.21;77.34
44198;BME280;30157;55.512;37.764;2022-09-14T10:45:39;98841.56;;;12.12;77.39
44198;BME280;30157;55.512;37.764;2022-09-14T10:48:48;98836.22;;;12.17;77.45
44198;BME280;30157;55.512;37.764;2022-09-14T10:51:32;98820.56;;;12.20;76.67
44198;BME280;30157;55.512;37.764;2022-09-14T10:59:52;98781.44;;;12.23;75.95
44198;BME280;30157;55.512;37.764;2022-09-14T11:18:12;98849.94;;;12.55;75.02
44198;BME280;30157;55.512;37.764;2022-09-14T11:23:18;98838.97;;;12.75;73.84
44198;BME280;30157;55.512;37.764;2022-09-14T11:28:51;98835.13;;;13.15;73.12
44198;BME280;30157;55.512;37.764;2022-09-14T11:31:22;98817.03;;;13.10;72.41
44198;BME280;30157;55.512;37.764;2022-09-14T11:36:19;98819.75;;;13.07;72.77
44198;BME280;30157;55.512;37.764;2022-09-14T11:39:00;98836.09;;;13.13;72.73
44198;BME280;30157;55.512;37.764;2022-09-14T11:41:42;98817.16;;;13.07;72.79
44198;BME280;30157;55.512;37.764;2022-09-14T11:46:49;98815.50;;;13.05;71.94
44198;BME280;30157;55.512;37.764;2022-09-14T11:49:27;98687.03;;;12.48;71.38
44198;BME280;30157;55.512;37.764;2022-09-14T11:52:03;98814.81;;;13.55;70.95
44198;BME280;30157;55.512;37.764;2022-09-14T11:54:32;98805.16;;;13.57;70.51
44198;BME280;30157;55.512;37.764;2022-09-14T11:57:01;98794.25;;;13.46;70.01
44198;BME280;30157;55.512;37.764;2022-09-14T11:59:47;98815.81;;;13.51;70.30
44198;BME280;30157;55.512;37.764;2022-09-14T12:12:43;98768.13;;;12.92;71.44
44198;BME280;30157;55.512;37.764;2022-09-14T12:23:22;98765.09;;;12.77;71.77
44198;BME280;30157;55.512;37.764;2022-09-14T12:36:03;98766.16;;;12.42;73.38
44198;BME280;30157;55.512;37.764;2022-09-14T12:40:59;98747.16;;;12.38;73.66
44198;BME280;30157;55.512;37.764;2022-09-14T12:46:01;98770.91;;;12.57;73.82
44198;BME280;30157;55.512;37.764;2022-09-14T13:05:14;98788.00;;;12.94;73.14
44198;BME280;30157;55.512;37.764;2022-09-14T13:07:41;98742.09;;;12.64;73.08
44198;BME280;30157;55.512;37.764;2022-09-14T13:10:31;98771.94;;;12.80;73.65
44198;BME280;30157;55.512;37.764;2022-09-14T13:13:05;98715.44;;;12.55;73.76
44198;BME280;30157;55.512;37.764;2022-09-14T13:15:35;98757.91;;;12.86;73.52
44198;BME280;30157;55.512;37.764;2022-09-14T13:20:34;98787.13;;;12.96;73.96
44198;BME280;30157;55.512;37.764;2022-09-14T13:23:01;98704.59;;;12.41;73.89
44198;BME280;30157;55.512;37.764;2022-09-14T13:25:35;98781.09;;;12.93;73.15
44198;BME280;30157;55.512;37.764;2022-09-14T13:28:13;98717.06;;;12.59;73.11
44198;BME280;30157;55.512;37.764;2022-09-14T13:30:40;98761.53;;;12.82;73.25
44198;BME280;30157;55.512;37.764;2022-09-14T13:33:15;98747.16;;;12.68;73.24
44198;BME280;30157;55.512;37.764;2022-09-14T13:35:46;98775.19;;;12.88;73.44
44198;BME280;30157;55.512;37.764;2022-09-14T13:38:22;98750.56;;;12.70;73.19
44198;BME280;30157;55.512;37.764;2022-09-14T13:40:50;98766.84;;;12.77;73.75
44198;BME280;30157;55.512;37.764;2022-09-14T13:43:17;98758.25;;;12.75;73.98
44198;BME280;30157;55.512;37.764;2022-09-14T13:45:43;98779.63;;;12.85;73.66
44198;BME280;30157;55.512;37.764;2022-09-14T13:48:13;98722.53;;;12.50;73.80
44198;BME280;30157;55.512;37.764;2022-09-14T13:50:44;98681.75;;;12.22;73.89
44198;BME280;30157;55.512;37.764;2022-09-14T13:56:26;98787.50;;;12.83;74.38
44198;BME280;30157;55.512;37.764;2022-09-14T14:04:04;98776.41;;;13.05;74.62
44198;BME280;30157;55.512;37.764;2022-09-14T14:06:34;98737.38;;;12.76;74.35
44198;BME280;30157;55.512;37.764;2022-09-14T14:09:05;98767.13;;;12.96;74.38
44198;BME280;30157;55.512;37.764;2022-09-14T14:14:19;98716.16;;;12.60;73.95
44198;BME280;30157;55.512;37.764;2022-09-14T14:19:44;98737.03;;;12.59;74.53
44198;BME280;30157;55.512;37.764;2022-09-14T14:24:36;98769.34;;;12.82;74.80
44198;BME280;30157;55.512;37.764;2022-09-14T14:27:02;98765.09;;;12.77;75.13
44198;BME280;30157;55.512;37.764;2022-09-14T14:29:27;98778.97;;;12.78;75.32
44198;BME280;30157;55.512;37.764;2022-09-14T14:31:54;98779.91;;;12.75;75.45
44198;BME280;30157;55.512;37.764;2022-09-14T14:34:25;98748.44;;;12.55;75.49
44198;BME280;30157;55.512;37.764;2022-09-14T14:36:52;98762.97;;;12.62;75.30
44198;BME280;30157;55.512;37.764;2022-09-14T14:39:23;98780.91;;;12.71;75.64
44198;BME280;30157;55.512;37.764;2022-09-14T14:41:49;98777.63;;;12.65;76.02
44198;BME280;30157;55.512;37.764;2022-09-14T14:44:20;98766.56;;;12.58;76.02
44198;BME280;30157;55.512;37.764;2022-09-14T14:46:46;98774.38;;;12.58;76.03
44198;BME280;30157;55.512;37.764;2022-09-14T14:49:14;98733.47;;;12.33;76.14
44198;BME280;30157;55.512;37.764;2022-09-14T14:51:40;98775.25;;;12.57;76.15
44198;BME280;30157;55.512;37.764;2022-09-14T14:54:08;98733.53;;;12.30;76.42
44198;BME280;30157;55.512;37.764;2022-09-14T14:56:36;98720.78;;;12.22;76.69
44198;BME280;30157;55.512;37.764;2022-09-14T14:59:04;98772.84;;;12.51;76.75
44198;BME280;30157;55.512;37.764;2022-09-14T15:01:39;98772.03;;;12.49;76.99
44198;BME280;30157;55.512;37.764;2022-09-14T15:04:05;98719.91;;;12.22;77.18
44198;BME280;30157;55.512;37.764;2022-09-14T15:06:30;98750.44;;;12.45;77.31
44198;BME280;30157;55.512;37.764;2022-09-14T15:08:56;98733.31;;;12.38;77.30
44198;BME280;30157;55.512;37.764;2022-09-14T15:11:22;98753.88;;;12.47;77.50
44198;BME280;30157;55.512;37.764;2022-09-14T15:13:48;98741.97;;;12.38;77.62
44198;BME280;30157;55.512;37.764;2022-09-14T15:16:14;98769.59;;;12.42;77.49
44198;BME280;30157;55.512;37.764;2022-09-14T15:18:43;98754.97;;;12.38;77.79
44198;BME280;30157;55.512;37.764;2022-09-14T15:21:11;98765.47;;;12.35;77.89
44198;BME280;30157;55.512;37.764;2022-09-14T15:23:37;98765.44;;;12.37;77.90
44198;BME280;30157;55.512;37.764;2022-09-14T15:26:03;98756.88;;;12.33;78.21
44198;BME280;30157;55.512;37.764;2022-09-14T15:28:29;98756.06;;;12.31;78.22
44198;BME280;30157;55.512;37.764;2022-09-14T15:30:55;98758.81;;;12.26;78.35
44198;BME280;30157;55.512;37.764;2022-09-14T15:33:21;98771.72;;;12.30;78.77
44198;BME280;30157;55.512;37.764;2022-09-14T15:35:53;98766.72;;;12.22;78.56